Wetterdaten: Sonntag, 29.07.2012
Datum Zeit Temperatur Luftfeuchte Regen Wind Richtung Richtung Taupunkt Windchill Windben
29.07.2012 00:00 16,1 C 91 % 0,0 l/m 0,0 km/h (0 Bft) S 180 14,6 C 16,0 C 0,0 km/h (0 Bft)
29.07.2012 00:05 16,1 C 91 % 0,0 l/m 0,3 km/h (0 Bft) S 180 14,6 C 16,0 C 0,0 km/h (0 Bft)
29.07.2012 00:10 16,1 C 91 % 0,0 l/m 0,5 km/h (0 Bft) N 360 14,6 C 16,0 C 0,0 km/h (0 Bft)
29.07.2012 00:15 16,1 C 91 % 0,0 l/m 0,2 km/h (0 Bft) NO 45 14,6 C 16,0 C 0,0 km/h (0 Bft)
29.07.2012 00:20 16,0 C 91 % 0,0 l/m 0,0 km/h (0 Bft) N-NO 22 14,5 C 15,9 C 0,0 km/h (0 Bft)
29.07.2012 00:25 16,0 C 91 % 0,0 l/m 0,6 km/h (0 Bft) S 180 14,5 C 15,8 C 2,4 km/h (1 Bft)
29.07.2012 00:30 16,0 C 91 % 0,0 l/m 1,1 km/h (1 Bft) N-NO 22 14,5 C 15,9 C 3,5 km/h (1 Bft)
29.07.2012 00:35 16,0 C 91 % 0,0 l/m 0,8 km/h (0 Bft) NO 45 14,5 C 15,8 C 0,0 km/h (0 Bft)
29.07.2012 00:40 16,0 C 91 % 0,0 l/m 0,3 km/h (0 Bft) O-SO 112 14,5 C 15,8 C 0,0 km/h (0 Bft)
29.07.2012 00:45 15,9 C 93 % 0,0 l/m 0,3 km/h (0 Bft) SO 135 14,8 C 15,7 C 2,4 km/h (1 Bft)
29.07.2012 00:50 15,9 C 93 % 0,0 l/m 0,3 km/h (0 Bft) S-SO 157 14,8 C 15,7 C 0,0 km/h (0 Bft)
29.07.2012 00:55 16,1 C 91 % 0,0 l/m 0,5 km/h (0 Bft) O-NO 67 14,6 C 15,8 C 0,0 km/h (0 Bft)
29.07.2012 01:00 16,1 C 91 % 0,0 l/m 0,3 km/h (0 Bft) N 360 14,6 C 15,8 C 0,0 km/h (0 Bft)
29.07.2012 01:05 16,2 C 91 % 0,0 l/m 0,2 km/h (0 Bft) SO 135 14,7 C 15,9 C 2,4 km/h (1 Bft)
29.07.2012 01:10 16,1 C 91 % 0,0 l/m 0,2 km/h (0 Bft) O-SO 112 14,6 C 16,0 C 2,7 km/h (1 Bft)
29.07.2012 01:15 16,1 C 91 % 0,0 l/m 0,6 km/h (0 Bft) N-NO 22 14,6 C 16,0 C 1,6 km/h (1 Bft)
29.07.2012 01:20 16,0 C 90 % 0,0 l/m 0,8 km/h (0 Bft) O-SO 112 14,4 C 15,9 C 4,0 km/h (1 Bft)
29.07.2012 01:25 16,0 C 90 % 0,0 l/m 0,3 km/h (0 Bft) S-SO 157 14,4 C 15,8 C 0,0 km/h (0 Bft)
29.07.2012 01:30 15,9 C 92 % 0,0 l/m 0,2 km/h (0 Bft) NO 45 14,6 C 15,7 C 1,8 km/h (1 Bft)
29.07.2012 01:35 15,7 C 92 % 0,0 l/m 0,8 km/h (0 Bft) NO 45 14,4 C 15,5 C 1,6 km/h (1 Bft)
29.07.2012 01:40 15,6 C 91 % 0,0 l/m 1,1 km/h (1 Bft) N 360 14,1 C 15,4 C 1,9 km/h (1 Bft)
29.07.2012 01:45 15,4 C 91 % 0,0 l/m 0,8 km/h (0 Bft) NO 45 13,9 C 15,2 C 0,0 km/h (0 Bft)
29.07.2012 01:50 15,4 C 91 % 0,0 l/m 0,5 km/h (0 Bft) N-NO 22 13,9 C 15,1 C 1,9 km/h (1 Bft)
29.07.2012 01:55 15,3 C 91 % 0,0 l/m 0,6 km/h (0 Bft) N 360 13,8 C 15,0 C 1,9 km/h (1 Bft)
29.07.2012 02:00 15,3 C 91 % 0,0 l/m 0,6 km/h (0 Bft) N 360 13,8 C 15,0 C 0,0 km/h (0 Bft)
29.07.2012 02:05 15,3 C 91 % 0,0 l/m 0,3 km/h (0 Bft) NO 45 13,8 C 15,0 C 0,0 km/h (0 Bft)
29.07.2012 02:10 15,2 C 91 % 0,0 l/m 0,5 km/h (0 Bft) NO 45 13,7 C 15,0 C 0,0 km/h (0 Bft)
29.07.2012 02:15 15,2 C 91 % 0,0 l/m 1,0 km/h (0 Bft) NW 315 13,7 C 14,9 C 0,0 km/h (0 Bft)
29.07.2012 02:20 15,2 C 91 % 0,0 l/m 1,1 km/h (1 Bft) W-NW 292 13,7 C 14,9 C 1,6 km/h (1 Bft)
29.07.2012 02:25 15,0 C 91 % 0,0 l/m 0,3 km/h (0 Bft) W 270 13,5 C 14,9 C 0,0 km/h (0 Bft)
29.07.2012 02:30 15,0 C 91 % 0,0 l/m 0,0 km/h (0 Bft) NO 45 13,5 C 14,8 C 0,0 km/h (0 Bft)
29.07.2012 02:35 14,9 C 92 % 0,0 l/m 0,0 km/h (0 Bft) N 360 13,6 C 14,7 C 0,0 km/h (0 Bft)
29.07.2012 02:40 14,8 C 92 % 0,0 l/m 0,0 km/h (0 Bft) S-SO 157 13,5 C 14,6 C 0,0 km/h (0 Bft)
29.07.2012 02:45 14,7 C 92 % 0,0 l/m 0,0 km/h (0 Bft) S-SO 157 13,4 C 14,6 C 0,0 km/h (0 Bft)
29.07.2012 02:50 14,7 C 92 % 0,0 l/m 0,6 km/h (0 Bft) S-SW 202 13,4 C 14,6 C 0,0 km/h (0 Bft)
29.07.2012 02:55 14,7 C 93 % 0,0 l/m 0,6 km/h (0 Bft) O-SO 112 13,6 C 14,6 C 0,0 km/h (0 Bft)
29.07.2012 03:00 14,7 C 93 % 0,0 l/m 0,0 km/h (0 Bft) N-NO 22 13,6 C 14,6 C 0,0 km/h (0 Bft)
29.07.2012 03:05 14,7 C 93 % 0,0 l/m 0,0 km/h (0 Bft) SO 135 13,6 C 14,5 C 0,0 km/h (0 Bft)
29.07.2012 03:10 14,6 C 93 % 0,0 l/m 0,0 km/h (0 Bft) NW 315 13,5 C 14,4 C 0,0 km/h (0 Bft)
29.07.2012 03:15 14,6 C 93 % 0,0 l/m 0,0 km/h (0 Bft) N-NO 22 13,5 C 14,4 C 0,0 km/h (0 Bft)
29.07.2012 03:20 14,7 C 93 % 0,0 l/m 0,0 km/h (0 Bft) NO 45 13,6 C 14,4 C 0,0 km/h (0 Bft)
29.07.2012 03:25 14,7 C 93 % 0,0 l/m 0,0 km/h (0 Bft) N 360 13,6 C 14,5 C 0,0 km/h (0 Bft)
29.07.2012 03:30 14,7 C 93 % 0,0 l/m 0,0 km/h (0 Bft) W-NW 292 13,6 C 14,6 C 0,0 km/h (0 Bft)
29.07.2012 03:35 14,6 C 93 % 0,0 l/m 0,0 km/h (0 Bft) N 360 13,5 C 14,5 C 0,0 km/h (0 Bft)
29.07.2012 03:40 14,6 C 93 % 0,0 l/m 0,0 km/h (0 Bft) NO 45 13,5 C 14,5 C 0,0 km/h (0 Bft)
29.07.2012 03:45 14,6 C 93 % 0,0 l/m 0,0 km/h (0 Bft) NO 45 13,5 C 14,4 C 0,0 km/h (0 Bft)
29.07.2012 03:50 14,6 C 93 % 0,0 l/m 0,0 km/h (0 Bft) N-NW 337 13,5 C 14,4 C 0,0 km/h (0 Bft)
29.07.2012 03:55 14,5 C 93 % 0,0 l/m 0,3 km/h (0 Bft) O-SO 112 13,4 C 14,4 C 2,4 km/h (1 Bft)
29.07.2012 04:00 14,5 C 93 % 0,0 l/m 0,6 km/h (0 Bft) NO 45 13,4 C 14,3 C 0,0 km/h (0 Bft)
29.07.2012 04:05 14,5 C 94 % 0,0 l/m 1,0 km/h (0 Bft) W 270 13,5 C 14,3 C 2,1 km/h (1 Bft)
29.07.2012 04:10 14,4 C 94 % 0,0 l/m 0,6 km/h (0 Bft) O-SO 112 13,4 C 14,3 C 3,1 km/h (1 Bft)
29.07.2012 04:15 14,4 C 94 % 0,0 l/m 0,6 km/h (0 Bft) W-SW 247 13,4 C 14,3 C 0,0 km/h (0 Bft)
29.07.2012 04:20 14,4 C 94 % 0,0 l/m 1,0 km/h (0 Bft) O-SO 112 13,4 C 14,3 C 4,8 km/h (1 Bft)
29.07.2012 04:25 14,5 C 94 % 0,0 l/m 0,8 km/h (0 Bft) S 180 13,5 C 14,4 C 0,0 km/h (0 Bft)
29.07.2012 04:30 14,4 C 94 % 0,0 l/m 0,6 km/h (0 Bft) S-SO 157 13,4 C 14,3 C 0,0 km/h (0 Bft)
29.07.2012 04:35 14,5 C 94 % 0,0 l/m 0,2 km/h (0 Bft) O-SO 112 13,5 C 14,4 C 2,4 km/h (1 Bft)
29.07.2012 04:40 14,6 C 94 % 0,0 l/m 1,1 km/h (1 Bft) O-SO 112 13,6 C 14,5 C 1,8 km/h (1 Bft)
29.07.2012 04:45 14,7 C 94 % 0,0 l/m 1,1 km/h (1 Bft) NO 45 13,7 C 14,6 C 0,0 km/h (0 Bft)
29.07.2012 04:50 14,6 C 94 % 0,0 l/m 0,2 km/h (0 Bft) W-SW 247 13,6 C 14,5 C 0,0 km/h (0 Bft)
29.07.2012 04:55 14,7 C 94 % 0,0 l/m 0,2 km/h (0 Bft) S 180 13,7 C 14,5 C 0,0 km/h (0 Bft)
29.07.2012 05:00 14,7 C 94 % 0,0 l/m 0,2 km/h (0 Bft) S 180 13,7 C 14,5 C 0,0 km/h (0 Bft)
29.07.2012 05:05 14,7 C 94 % 0,0 l/m 0,2 km/h (0 Bft) S-SO 157 13,7 C 14,4 C 0,0 km/h (0 Bft)
29.07.2012 05:10 14,6 C 94 % 0,0 l/m 0,2 km/h (0 Bft) NO 45 13,6 C 14,4 C 0,0 km/h (0 Bft)
29.07.2012 05:15 14,4 C 94 % 0,0 l/m 0,0 km/h (0 Bft) SO 135 13,4 C 14,3 C 0,0 km/h (0 Bft)
29.07.2012 05:20 14,2 C 94 % 0,0 l/m 0,0 km/h (0 Bft) S 180 13,2 C 14,1 C 0,0 km/h (0 Bft)
29.07.2012 05:25 14,2 C 94 % 0,0 l/m 0,0 km/h (0 Bft) N-NW 337 13,2 C 14,0 C 0,0 km/h (0 Bft)
29.07.2012 05:30 14,1 C 94 % 0,0 l/m 0,0 km/h (0 Bft) SO 135 13,1 C 14,0 C 0,0 km/h (0 Bft)
29.07.2012 05:35 14,1 C 94 % 0,0 l/m 0,2 km/h (0 Bft) SO 135 13,1 C 14,0 C 1,8 km/h (1 Bft)
29.07.2012 05:40 14,1 C 94 % 0,0 l/m 0,5 km/h (0 Bft) S 180 13,1 C 14,1 C 0,0 km/h (0 Bft)
29.07.2012 05:45 14,0 C 94 % 0,0 l/m 0,3 km/h (0 Bft) S-SO 157 13,0 C 13,9 C 0,0 km/h (0 Bft)
29.07.2012 05:50 13,9 C 94 % 0,0 l/m 0,0 km/h (0 Bft) SO 135 12,9 C 13,8 C 0,0 km/h (0 Bft)
29.07.2012 05:55 13,9 C 94 % 0,0 l/m 0,0 km/h (0 Bft) N 360 12,9 C 13,8 C 0,0 km/h (0 Bft)
29.07.2012 06:00 14,0 C 94 % 0,0 l/m 0,0 km/h (0 Bft) NO 45 13,0 C 13,8 C 0,0 km/h (0 Bft)
29.07.2012 06:05 13,9 C 94 % 0,0 l/m 0,0 km/h (0 Bft) N-NO 22 12,9 C 13,8 C 0,0 km/h (0 Bft)
29.07.2012 06:10 13,9 C 94 % 0,0 l/m 0,0 km/h (0 Bft) S 180 12,9 C 13,8 C 0,0 km/h (0 Bft)
29.07.2012 06:15 14,0 C 94 % 0,0 l/m 0,0 km/h (0 Bft) N 360 13,0 C 13,8 C 0,0 km/h (0 Bft)
29.07.2012 06:20 14,1 C 94 % 0,0 l/m 0,0 km/h (0 Bft) O 90 13,1 C 13,8 C 0,0 km/h (0 Bft)
29.07.2012 06:25 14,1 C 94 % 0,0 l/m 0,0 km/h (0 Bft) NO 45 13,1 C 13,9 C 0,0 km/h (0 Bft)
29.07.2012 06:30 14,1 C 94 % 0,0 l/m 0,0 km/h (0 Bft) S 180 13,1 C 14,0 C 0,0 km/h (0 Bft)
29.07.2012 06:35 14,1 C 94 % 0,0 l/m 0,0 km/h (0 Bft) NO 45 13,1 C 14,0 C 0,0 km/h (0 Bft)
29.07.2012 06:40 14,2 C 94 % 0,0 l/m 0,0 km/h (0 Bft) S 180 13,2 C 14,1 C 0,0 km/h (0 Bft)
29.07.2012 06:45 14,3 C 94 % 0,0 l/m 0,0 km/h (0 Bft) S 180 13,3 C 14,1 C 0,0 km/h (0 Bft)
29.07.2012 06:50 14,4 C 94 % 0,0 l/m 0,2 km/h (0 Bft) SO 135 13,4 C 14,3 C 3,2 km/h (1 Bft)
29.07.2012 06:55 14,7 C 94 % 0,0 l/m 0,2 km/h (0 Bft) S-SO 157 13,7 C 14,4 C 0,0 km/h (0 Bft)
29.07.2012 07:00 14,7 C 94 % 0,0 l/m 0,2 km/h (0 Bft) N 360 13,7 C 14,5 C 0,0 km/h (0 Bft)
29.07.2012 07:05 14,8 C 94 % 0,0 l/m 0,0 km/h (0 Bft) N-NO 22 13,8 C 14,6 C 0,0 km/h (0 Bft)
29.07.2012 07:10 14,9 C 94 % 0,0 l/m 0,0 km/h (0 Bft) N 360 13,9 C 14,6 C 0,0 km/h (0 Bft)
29.07.2012 07:15 15,1 C 94 % 0,0 l/m 0,2 km/h (0 Bft) NO 45 14,1 C 14,8 C 0,0 km/h (0 Bft)
29.07.2012 07:20 15,3 C 94 % 0,0 l/m 0,3 km/h (0 Bft) W-NW 292 14,3 C 14,9 C 0,0 km/h (0 Bft)
29.07.2012 07:25 15,4 C 94 % 0,0 l/m 0,3 km/h (0 Bft) O-NO 67 14,4 C 15,0 C 0,0 km/h (0 Bft)
29.07.2012 07:30 15,5 C 94 % 0,0 l/m 0,2 km/h (0 Bft) SO 135 14,5 C 15,2 C 0,0 km/h (0 Bft)
29.07.2012 07:35 16,5 C 92 % 0,0 l/m 0,0 km/h (0 Bft) S 180 15,2 C 15,6 C 0,0 km/h (0 Bft)
29.07.2012 07:40 17,8 C 92 % 0,0 l/m 0,2 km/h (0 Bft) S-SO 157 16,5 C 17,1 C 2,3 km/h (1 Bft)
29.07.2012 07:45 18,7 C 90 % 0,0 l/m 0,8 km/h (0 Bft) N-NW 337 17,0 C 18,4 C 1,8 km/h (1 Bft)
29.07.2012 07:50 17,4 C 89 % 0,0 l/m 0,8 km/h (0 Bft) N-NO 22 15,6 C 18,7 C 0,0 km/h (0 Bft)
29.07.2012 07:55 20,5 C 87 % 0,0 l/m 1,6 km/h (1 Bft) NW 315 18,6 C 19,0 C 3,4 km/h (1 Bft)
29.07.2012 08:00 19,9 C 83 % 0,0 l/m 2,6 km/h (1 Bft) O-SO 112 16,9 C 20,3 C 6,1 km/h (2 Bft)
29.07.2012 08:05 18,4 C 85 % 0,0 l/m 1,8 km/h (1 Bft) S-SO 157 15,8 C 19,7 C 2,7 km/h (1 Bft)
29.07.2012 08:10 17,9 C 85 % 0,0 l/m 1,1 km/h (1 Bft) N 360 15,3 C 19,3 C 4,3 km/h (1 Bft)
29.07.2012 08:15 17,5 C 84 % 0,0 l/m 0,8 km/h (0 Bft) N 360 14,8 C 18,7 C 0,0 km/h (0 Bft)
29.07.2012 08:20 17,7 C 85 % 0,0 l/m 0,5 km/h (0 Bft) NO 45 15,1 C 18,6 C 0,0 km/h (0 Bft)
29.07.2012 08:25 18,0 C 86 % 0,0 l/m 0,5 km/h (0 Bft) S 180 15,6 C 18,7 C 0,0 km/h (0 Bft)
29.07.2012 08:30 18,1 C 87 % 0,0 l/m 0,6 km/h (0 Bft) SO 135 15,9 C 18,8 C 0,0 km/h (0 Bft)
29.07.2012 08:35 18,3 C 87 % 0,0 l/m 1,4 km/h (1 Bft) O 90 16,1 C 18,9 C 4,3 km/h (1 Bft)
29.07.2012 08:40 18,2 C 86 % 0,0 l/m 2,7 km/h (1 Bft) O-SO 112 15,8 C 18,9 C 7,1 km/h (2 Bft)
29.07.2012 08:45 17,7 C 85 % 0,0 l/m 4,8 km/h (1 Bft) O-SO 112 15,1 C 18,5 C 9,0 km/h (2 Bft)
29.07.2012 08:50 17,2 C 82 % 0,0 l/m 7,7 km/h (2 Bft) S 180 14,1 C 17,5 C 11,1 km/h (2 Bft)
29.07.2012 08:55 15,5 C 82 % 0,7 l/m 13,8 km/h (3 Bft) SO 135 12,4 C 12,4 C 17,7 km/h (3 Bft)
29.07.2012 09:00 14,8 C 84 % 0,0 l/m 14,5 km/h (3 Bft) SO 135 12,1 C 10,3 C 26,6 km/h (4 Bft)
29.07.2012 09:05 13,9 C 87 % 0,7 l/m 9,3 km/h (2 Bft) O-SO 112 11,8 C 11,9 C 11,1 km/h (2 Bft)
29.07.2012 09:10 13,8 C 88 % 0,0 l/m 7,1 km/h (2 Bft) SO 135 11,8 C 13,1 C 4,7 km/h (1 Bft)
29.07.2012 09:15 13,7 C 89 % 0,7 l/m 5,0 km/h (1 Bft) N-NO 22 11,9 C 13,5 C 0,0 km/h (0 Bft)
29.07.2012 09:20 13,6 C 90 % 0,0 l/m 3,2 km/h (1 Bft) O 90 12,0 C 13,4 C 4,3 km/h (1 Bft)
29.07.2012 09:25 13,6 C 90 % 0,7 l/m 1,9 km/h (1 Bft) O-SO 112 12,0 C 13,4 C 0,0 km/h (0 Bft)
29.07.2012 09:30 13,6 C 91 % 0,0 l/m 1,4 km/h (1 Bft) O-SO 112 12,2 C 13,4 C 4,2 km/h (1 Bft)
29.07.2012 09:35 13,7 C 91 % 0,0 l/m 1,6 km/h (1 Bft) N-NO 22 12,3 C 13,4 C 0,0 km/h (0 Bft)
29.07.2012 09:40 13,8 C 91 % 0,0 l/m 1,6 km/h (1 Bft) O 90 12,4 C 13,6 C 3,1 km/h (1 Bft)
29.07.2012 09:45 14,1 C 92 % 0,0 l/m 1,4 km/h (1 Bft) NO 45 12,8 C 13,8 C 2,1 km/h (1 Bft)
29.07.2012 09:50 14,2 C 92 % 0,0 l/m 1,4 km/h (1 Bft) O-SO 112 12,9 C 13,8 C 0,0 km/h (0 Bft)
29.07.2012 09:55 14,3 C 92 % 0,0 l/m 0,8 km/h (0 Bft) S-SO 157 13,0 C 14,1 C 1,9 km/h (1 Bft)
29.07.2012 10:00 14,2 C 92 % 0,0 l/m 0,5 km/h (0 Bft) S-SW 202 12,9 C 14,1 C 1,6 km/h (1 Bft)
29.07.2012 10:05 14,3 C 92 % 0,0 l/m 1,1 km/h (1 Bft) O-SO 112 13,0 C 14,3 C 2,1 km/h (1 Bft)
29.07.2012 10:10 14,5 C 93 % 0,0 l/m 1,1 km/h (1 Bft) O-SO 112 13,4 C 14,4 C 0,0 km/h (0 Bft)
29.07.2012 10:15 14,9 C 93 % 0,0 l/m 0,8 km/h (0 Bft) O-SO 112 13,8 C 14,9 C 1,9 km/h (1 Bft)
29.07.2012 10:20 15,1 C 92 % 0,0 l/m 1,8 km/h (1 Bft) SO 135 13,8 C 15,1 C 10,0 km/h (2 Bft)
29.07.2012 10:25 15,6 C 92 % 0,0 l/m 2,4 km/h (1 Bft) SO 135 14,3 C 15,7 C 2,3 km/h (1 Bft)
29.07.2012 10:30 16,9 C 91 % 0,0 l/m 2,1 km/h (1 Bft) O-NO 67 15,4 C 16,6 C 7,1 km/h (2 Bft)
29.07.2012 10:35 19,2 C 88 % 0,0 l/m 2,9 km/h (1 Bft) O 90 17,8 C 19,8 C 7,6 km/h (2 Bft)
29.07.2012 10:40 19,0 C 87 % 0,0 l/m 4,2 km/h (1 Bft) O-SO 112 16,8 C 20,5 C 4,5 km/h (1 Bft)
29.07.2012 10:45 20,7 C 82 % 0,0 l/m 5,1 km/h (1 Bft) SO 135 17,7 C 22,1 C 5,8 km/h (2 Bft)
29.07.2012 10:50 19,7 C 82 % 0,0 l/m 5,3 km/h (1 Bft) SO 135 16,5 C 22,9 C 4,3 km/h (1 Bft)
29.07.2012 10:55 18,0 C 84 % 0,0 l/m 5,1 km/h (1 Bft) N 360 15,3 C 21,3 C 2,3 km/h (1 Bft)
29.07.2012 11:00 19,2 C 83 % 0,0 l/m 5,3 km/h (1 Bft) O 90 16,2 C 21,0 C 8,7 km/h (2 Bft)
29.07.2012 11:05 20,1 C 81 % 0,0 l/m 3,9 km/h (1 Bft) O 90 16,7 C 21,3 C 6,6 km/h (2 Bft)
29.07.2012 11:10 20,9 C 77 % 0,0 l/m 4,0 km/h (1 Bft) SO 135 16,7 C 22,2 C 8,4 km/h (2 Bft)
29.07.2012 11:15 19,3 C 80 % 0,0 l/m 5,1 km/h (1 Bft) S-SO 157 15,8 C 21,9 C 9,7 km/h (2 Bft)
29.07.2012 11:20 18,6 C 81 % 0,0 l/m 4,3 km/h (1 Bft) O-NO 67 15,3 C 20,9 C 1,6 km/h (1 Bft)
29.07.2012 11:25 18,8 C 84 % 0,0 l/m 2,7 km/h (1 Bft) N-NO 22 16,0 C 20,6 C 3,7 km/h (1 Bft)
29.07.2012 11:30 19,2 C 83 % 0,0 l/m 1,6 km/h (1 Bft) O-SO 112 16,2 C 20,9 C 2,7 km/h (1 Bft)
29.07.2012 11:35 19,1 C 81 % 0,0 l/m 2,3 km/h (1 Bft) O-NO 67 15,8 C 21,1 C 3,1 km/h (1 Bft)
29.07.2012 11:40 18,7 C 81 % 0,0 l/m 2,6 km/h (1 Bft) S-SO 157 15,4 C 21,0 C 8,0 km/h (2 Bft)
29.07.2012 11:45 18,3 C 80 % 0,0 l/m 2,6 km/h (1 Bft) S 180 14,8 C 20,6 C 2,3 km/h (1 Bft)
29.07.2012 11:50 18,9 C 84 % 0,0 l/m 2,6 km/h (1 Bft) O-SO 112 16,1 C 20,5 C 3,5 km/h (1 Bft)
29.07.2012 11:55 19,1 C 82 % 0,0 l/m 2,6 km/h (1 Bft) S-SO 157 16,0 C 20,6 C 3,4 km/h (1 Bft)
29.07.2012 12:00 19,2 C 83 % 0,0 l/m 2,7 km/h (1 Bft) S-SO 157 16,2 C 20,8 C 1,8 km/h (1 Bft)
29.07.2012 12:05 19,1 C 83 % 0,0 l/m 2,1 km/h (1 Bft) O 90 16,1 C 20,9 C 3,9 km/h (1 Bft)
29.07.2012 12:10 19,2 C 81 % 0,0 l/m 1,8 km/h (1 Bft) N 360 15,9 C 21,1 C 0,0 km/h (0 Bft)
29.07.2012 12:15 20,5 C 81 % 0,0 l/m 1,4 km/h (1 Bft) O 90 17,1 C 22,4 C 6,9 km/h (2 Bft)
29.07.2012 12:20 20,0 C 80 % 0,0 l/m 1,3 km/h (1 Bft) SO 135 16,4 C 22,7 C 2,3 km/h (1 Bft)
29.07.2012 12:25 21,7 C 75 % 0,0 l/m 4,5 km/h (1 Bft) S 180 17,1 C 23,0 C 9,5 km/h (2 Bft)
29.07.2012 12:30 20,9 C 75 % 0,0 l/m 5,5 km/h (1 Bft) S 180 16,3 C 23,1 C 6,4 km/h (2 Bft)
29.07.2012 12:35 19,7 C 77 % 0,0 l/m 6,3 km/h (2 Bft) O-SO 112 15,5 C 22,1 C 6,1 km/h (2 Bft)
29.07.2012 12:40 21,0 C 76 % 0,0 l/m 6,1 km/h (2 Bft) S-SO 157 16,6 C 21,6 C 7,2 km/h (2 Bft)
29.07.2012 12:45 21,2 C 75 % 0,0 l/m 5,8 km/h (2 Bft) O 90 16,6 C 22,7 C 7,9 km/h (2 Bft)
29.07.2012 12:50 22,1 C 70 % 0,0 l/m 5,5 km/h (1 Bft) O 90 16,4 C 23,3 C 5,8 km/h (2 Bft)
29.07.2012 12:55 23,9 C 70 % 0,0 l/m 6,0 km/h (2 Bft) O-SO 112 18,1 C 24,4 C 9,8 km/h (2 Bft)
29.07.2012 13:00 23,9 C 70 % 0,0 l/m 6,6 km/h (2 Bft) S 180 18,1 C 24,7 C 1,9 km/h (1 Bft)
29.07.2012 13:05 24,5 C 66 % 0,0 l/m 5,6 km/h (1 Bft) S-SO 157 17,7 C 25,6 C 3,2 km/h (1 Bft)
29.07.2012 13:10 24,2 C 60 % 0,0 l/m 6,3 km/h (2 Bft) SO 135 15,9 C 25,5 C 12,6 km/h (3 Bft)
29.07.2012 13:15 24,0 C 59 % 0,0 l/m 8,5 km/h (2 Bft) O-SO 112 15,5 C 24,2 C 15,4 km/h (3 Bft)
29.07.2012 13:20 24,0 C 58 % 0,0 l/m 9,8 km/h (2 Bft) O-SO 112 15,2 C 23,8 C 29,1 km/h (5 Bft)
29.07.2012 13:25 24,1 C 54 % 0,0 l/m 10,3 km/h (2 Bft) O-SO 112 14,2 C 24,1 C 13,5 km/h (3 Bft)
29.07.2012 13:30 24,1 C 54 % 0,0 l/m 10,0 km/h (2 Bft) SO 135 14,2 C 24,3 C 16,6 km/h (3 Bft)
29.07.2012 13:35 22,2 C 55 % 0,0 l/m 11,1 km/h (2 Bft) SO 135 12,7 C 22,6 C 11,7 km/h (2 Bft)
29.07.2012 13:40 22,0 C 56 % 0,0 l/m 11,3 km/h (2 Bft) S-SO 157 12,8 C 21,6 C 14,3 km/h (3 Bft)
29.07.2012 13:45 21,8 C 59 % 0,0 l/m 10,1 km/h (2 Bft) O-SO 112 13,4 C 21,7 C 9,5 km/h (2 Bft)
29.07.2012 13:50 21,5 C 59 % 0,0 l/m 10,1 km/h (2 Bft) SO 135 13,1 C 21,2 C 8,5 km/h (2 Bft)
29.07.2012 13:55 20,7 C 59 % 0,0 l/m 9,8 km/h (2 Bft) O-SO 112 12,4 C 20,6 C 16,1 km/h (3 Bft)
29.07.2012 14:00 21,3 C 59 % 0,0 l/m 9,7 km/h (2 Bft) O-SO 112 13,0 C 20,5 C 7,9 km/h (2 Bft)
29.07.2012 14:05 22,3 C 57 % 0,0 l/m 10,6 km/h (2 Bft) O-SO 112 13,4 C 21,1 C 9,7 km/h (2 Bft)
29.07.2012 14:10 21,9 C 57 % 0,0 l/m 10,5 km/h (2 Bft) SO 135 13,0 C 21,4 C 14,5 km/h (3 Bft)
29.07.2012 14:15 21,6 C 61 % 0,0 l/m 10,0 km/h (2 Bft) SO 135 13,7 C 20,8 C 10,3 km/h (2 Bft)
29.07.2012 14:20 21,0 C 59 % 0,0 l/m 10,1 km/h (2 Bft) S 180 12,7 C 20,8 C 13,5 km/h (3 Bft)
29.07.2012 14:25 21,0 C 59 % 0,0 l/m 9,8 km/h (2 Bft) S-SO 157 12,7 C 20,5 C 15,1 km/h (3 Bft)
29.07.2012 14:30 21,4 C 59 % 0,0 l/m 9,3 km/h (2 Bft) O-SO 112 13,0 C 20,6 C 5,3 km/h (1 Bft)
29.07.2012 14:35 20,3 C 61 % 0,0 l/m 9,0 km/h (2 Bft) S-SO 157 12,5 C 20,9 C 13,2 km/h (3 Bft)
29.07.2012 14:40 19,7 C 64 % 0,0 l/m 9,2 km/h (2 Bft) SO 135 12,7 C 19,8 C 11,3 km/h (2 Bft)
29.07.2012 14:45 19,4 C 66 % 0,0 l/m 9,5 km/h (2 Bft) S-SO 157 12,9 C 18,8 C 7,9 km/h (2 Bft)
29.07.2012 14:50 19,0 C 66 % 0,0 l/m 8,9 km/h (2 Bft) S-SO 157 12,5 C 18,6 C 12,9 km/h (3 Bft)
29.07.2012 14:55 19,0 C 68 % 0,0 l/m 7,9 km/h (2 Bft) S 180 13,0 C 18,7 C 11,6 km/h (2 Bft)
29.07.2012 15:00 19,0 C 68 % 0,0 l/m 8,5 km/h (2 Bft) S 180 13,0 C 18,4 C 9,2 km/h (2 Bft)
29.07.2012 15:05 20,6 C 64 % 0,0 l/m 8,0 km/h (2 Bft) S 180 13,5 C 20,1 C 7,1 km/h (2 Bft)
29.07.2012 15:10 20,5 C 64 % 0,0 l/m 7,9 km/h (2 Bft) SO 135 13,5 C 20,5 C 21,4 km/h (4 Bft)
29.07.2012 15:15 20,8 C 64 % 0,0 l/m 8,5 km/h (2 Bft) SO 135 13,7 C 20,8 C 12,7 km/h (3 Bft)
29.07.2012 15:20 20,2 C 66 % 0,0 l/m 9,3 km/h (2 Bft) S 180 13,6 C 20,4 C 14,3 km/h (3 Bft)
29.07.2012 15:25 19,7 C 65 % 0,0 l/m 8,0 km/h (2 Bft) S-SO 157 12,9 C 20,4 C 9,0 km/h (2 Bft)
29.07.2012 15:30 19,4 C 68 % 0,0 l/m 7,4 km/h (2 Bft) S 180 13,3 C 20,1 C 4,5 km/h (1 Bft)
29.07.2012 15:35 19,4 C 68 % 0,0 l/m 7,1 km/h (2 Bft) S-SO 157 13,3 C 19,7 C 7,1 km/h (2 Bft)
29.07.2012 15:40 19,3 C 69 % 0,0 l/m 6,6 km/h (2 Bft) O-SO 112 13,5 C 19,7 C 8,9 km/h (2 Bft)
29.07.2012 15:45 18,6 C 70 % 0,0 l/m 5,8 km/h (2 Bft) S-SO 157 13,0 C 19,4 C 5,5 km/h (1 Bft)
29.07.2012 15:50 18,9 C 71 % 0,0 l/m 5,8 km/h (2 Bft) S 180 13,5 C 19,1 C 7,1 km/h (2 Bft)
29.07.2012 15:55 20,0 C 67 % 0,0 l/m 6,4 km/h (2 Bft) W 270 13,7 C 20,0 C 6,6 km/h (2 Bft)
29.07.2012 16:00 20,3 C 68 % 0,0 l/m 6,8 km/h (2 Bft) NW 315 14,2 C 20,4 C 3,7 km/h (1 Bft)
29.07.2012 16:05 19,9 C 67 % 0,0 l/m 7,6 km/h (2 Bft) S-SO 157 13,6 C 20,1 C 19,8 km/h (3 Bft)
29.07.2012 16:10 19,3 C 67 % 0,0 l/m 9,3 km/h (2 Bft) S-SO 157 13,0 C 19,0 C 8,9 km/h (2 Bft)
29.07.2012 16:15 19,5 C 68 % 0,0 l/m 9,7 km/h (2 Bft) O-SO 112 13,4 C 18,6 C 8,9 km/h (2 Bft)
29.07.2012 16:20 19,8 C 67 % 0,0 l/m 7,7 km/h (2 Bft) S-SW 202 13,5 C 19,6 C 7,9 km/h (2 Bft)
29.07.2012 16:25 20,4 C 65 % 0,0 l/m 7,2 km/h (2 Bft) S 180 13,6 C 20,9 C 14,2 km/h (3 Bft)
29.07.2012 16:30 19,5 C 66 % 0,0 l/m 6,9 km/h (2 Bft) S-SO 157 13,0 C 20,6 C 4,8 km/h (1 Bft)
29.07.2012 16:35 18,9 C 69 % 0,0 l/m 7,4 km/h (2 Bft) O-SO 112 13,1 C 19,4 C 5,3 km/h (1 Bft)
29.07.2012 16:40 18,6 C 70 % 0,0 l/m 7,4 km/h (2 Bft) O-SO 112 13,0 C 18,9 C 12,6 km/h (3 Bft)
29.07.2012 16:45 18,1 C 71 % 0,0 l/m 7,7 km/h (2 Bft) S 180 12,8 C 18,1 C 6,4 km/h (2 Bft)
29.07.2012 16:50 17,7 C 72 % 0,0 l/m 7,9 km/h (2 Bft) SO 135 12,6 C 17,6 C 13,4 km/h (3 Bft)
29.07.2012 16:55 17,5 C 72 % 0,0 l/m 6,9 km/h (2 Bft) S 180 12,4 C 17,8 C 7,4 km/h (2 Bft)
29.07.2012 17:00 17,1 C 73 % 0,0 l/m 6,8 km/h (2 Bft) S-SO 157 12,2 C 17,3 C 11,4 km/h (2 Bft)
29.07.2012 17:05 16,9 C 76 % 0,0 l/m 5,6 km/h (1 Bft) O-SO 112 12,6 C 16,8 C 3,2 km/h (1 Bft)
29.07.2012 17:10 16,9 C 76 % 0,0 l/m 5,8 km/h (2 Bft) O-SO 112 12,6 C 16,8 C 4,8 km/h (1 Bft)
29.07.2012 17:15 17,3 C 75 % 0,0 l/m 4,8 km/h (1 Bft) O-SO 112 12,8 C 17,1 C 6,9 km/h (2 Bft)
29.07.2012 17:20 17,8 C 75 % 0,0 l/m 4,2 km/h (1 Bft) SO 135 13,3 C 17,6 C 7,4 km/h (2 Bft)
29.07.2012 17:25 18,6 C 73 % 0,0 l/m 3,9 km/h (1 Bft) NO 45 13,7 C 18,6 C 4,2 km/h (1 Bft)
29.07.2012 17:30 18,7 C 72 % 0,0 l/m 2,7 km/h (1 Bft) S-SO 157 13,5 C 19,7 C 3,4 km/h (1 Bft)
29.07.2012 17:35 18,6 C 72 % 0,0 l/m 2,9 km/h (1 Bft) S 180 13,4 C 20,2 C 7,2 km/h (2 Bft)
29.07.2012 17:40 18,5 C 73 % 0,0 l/m 4,3 km/h (1 Bft) SO 135 13,6 C 19,8 C 8,0 km/h (2 Bft)
29.07.2012 17:45 18,1 C 72 % 0,0 l/m 6,8 km/h (2 Bft) S 180 13,0 C 18,8 C 5,3 km/h (1 Bft)
29.07.2012 17:50 18,2 C 73 % 0,0 l/m 6,9 km/h (2 Bft) W-SW 247 13,3 C 18,6 C 9,8 km/h (2 Bft)
29.07.2012 17:55 18,2 C 73 % 0,0 l/m 5,6 km/h (1 Bft) S-SO 157 13,3 C 18,6 C 7,2 km/h (2 Bft)
29.07.2012 18:00 18,2 C 73 % 0,0 l/m 5,6 km/h (1 Bft) SO 135 13,3 C 18,6 C 9,5 km/h (2 Bft)
29.07.2012 18:05 17,8 C 74 % 0,0 l/m 6,1 km/h (2 Bft) N-NO 22 13,1 C 18,2 C 6,1 km/h (2 Bft)
29.07.2012 18:10 17,7 C 74 % 0,0 l/m 5,6 km/h (1 Bft) S-SW 202 13,0 C 18,0 C 2,7 km/h (1 Bft)
29.07.2012 18:15 17,7 C 74 % 0,0 l/m 3,5 km/h (1 Bft) O 90 13,0 C 18,0 C 7,2 km/h (2 Bft)
29.07.2012 18:20 17,7 C 74 % 0,0 l/m 3,2 km/h (1 Bft) S-SO 157 13,0 C 18,2 C 3,1 km/h (1 Bft)
29.07.2012 18:25 17,7 C 75 % 0,0 l/m 3,5 km/h (1 Bft) O-SO 112 13,2 C 18,2 C 4,2 km/h (1 Bft)
29.07.2012 18:30 17,6 C 74 % 0,0 l/m 3,9 km/h (1 Bft) S-SO 157 12,9 C 18,2 C 4,8 km/h (1 Bft)
29.07.2012 18:35 17,3 C 74 % 0,0 l/m 4,7 km/h (1 Bft) S 180 12,6 C 17,8 C 4,7 km/h (1 Bft)
29.07.2012 18:40 17,2 C 75 % 0,0 l/m 5,0 km/h (1 Bft) S-SO 157 12,7 C 17,6 C 6,1 km/h (2 Bft)
29.07.2012 18:45 17,0 C 75 % 0,0 l/m 5,8 km/h (2 Bft) NO 45 12,5 C 17,3 C 5,0 km/h (1 Bft)
29.07.2012 18:50 17,2 C 76 % 0,0 l/m 5,8 km/h (2 Bft) SO 135 12,9 C 17,3 C 10,9 km/h (2 Bft)
29.07.2012 18:55 17,2 C 76 % 0,0 l/m 5,1 km/h (1 Bft) O-NO 67 12,9 C 17,3 C 3,5 km/h (1 Bft)
29.07.2012 19:00 17,2 C 76 % 0,0 l/m 6,1 km/h (2 Bft) O-SO 112 12,9 C 17,2 C 6,1 km/h (2 Bft)
29.07.2012 19:05 17,1 C 76 % 0,0 l/m 4,7 km/h (1 Bft) SO 135 12,8 C 17,2 C 6,0 km/h (2 Bft)
29.07.2012 19:10 17,1 C 76 % 0,0 l/m 3,2 km/h (1 Bft) S 180 12,8 C 17,2 C 2,3 km/h (1 Bft)
29.07.2012 19:15 17,1 C 77 % 0,0 l/m 2,9 km/h (1 Bft) O-SO 112 13,0 C 17,2 C 4,2 km/h (1 Bft)
29.07.2012 19:20 16,9 C 77 % 0,0 l/m 3,1 km/h (1 Bft) O-SO 112 12,8 C 17,1 C 6,3 km/h (2 Bft)
29.07.2012 19:25 16,9 C 78 % 0,0 l/m 3,4 km/h (1 Bft) O-SO 112 13,0 C 17,0 C 5,5 km/h (1 Bft)
29.07.2012 19:30 16,8 C 78 % 0,0 l/m 3,7 km/h (1 Bft) O-SO 112 12,9 C 16,8 C 3,7 km/h (1 Bft)
29.07.2012 19:35 16,6 C 78 % 0,0 l/m 3,9 km/h (1 Bft) O-NO 67 12,7 C 16,7 C 6,3 km/h (2 Bft)
29.07.2012 19:40 16,6 C 78 % 0,0 l/m 3,9 km/h (1 Bft) O 90 12,7 C 16,5 C 3,7 km/h (1 Bft)
29.07.2012 19:45 16,5 C 79 % 0,0 l/m 3,5 km/h (1 Bft) S-SO 157 12,8 C 16,4 C 1,9 km/h (1 Bft)
29.07.2012 19:50 16,4 C 78 % 0,0 l/m 3,1 km/h (1 Bft) SO 135 12,6 C 16,4 C 3,5 km/h (1 Bft)
29.07.2012 19:55 16,3 C 79 % 0,0 l/m 2,4 km/h (1 Bft) SO 135 12,6 C 16,3 C 1,6 km/h (1 Bft)
29.07.2012 20:00 16,2 C 79 % 0,0 l/m 2,7 km/h (1 Bft) O 90 12,6 C 16,2 C 4,3 km/h (1 Bft)
29.07.2012 20:05 16,0 C 79 % 0,0 l/m 2,1 km/h (1 Bft) SO 135 12,4 C 16,1 C 0,0 km/h (0 Bft)
29.07.2012 20:10 16,0 C 80 % 0,0 l/m 1,6 km/h (1 Bft) SO 135 12,5 C 16,0 C 1,8 km/h (1 Bft)
29.07.2012 20:15 16,0 C 80 % 0,0 l/m 0,6 km/h (0 Bft) SO 135 12,5 C 15,9 C 1,8 km/h (1 Bft)
29.07.2012 20:20 15,9 C 81 % 0,0 l/m 0,8 km/h (0 Bft) O-NO 67 12,6 C 15,9 C 1,9 km/h (1 Bft)
29.07.2012 20:25 15,8 C 81 % 0,0 l/m 1,1 km/h (1 Bft) O-SO 112 12,5 C 15,8 C 1,8 km/h (1 Bft)
29.07.2012 20:30 15,8 C 81 % 0,0 l/m 0,8 km/h (0 Bft) SO 135 12,5 C 15,7 C 0,0 km/h (0 Bft)
29.07.2012 20:35 15,7 C 81 % 0,0 l/m 0,3 km/h (0 Bft) S-SO 157 12,4 C 15,7 C 0,0 km/h (0 Bft)
29.07.2012 20:40 15,7 C 81 % 0,0 l/m 0,3 km/h (0 Bft) O 90 12,4 C 15,7 C 1,8 km/h (1 Bft)
29.07.2012 20:45 15,6 C 82 % 0,0 l/m 0,3 km/h (0 Bft) N-NO 22 12,5 C 15,6 C 0,0 km/h (0 Bft)
29.07.2012 20:50 15,6 C 82 % 0,0 l/m 0,2 km/h (0 Bft) O 90 12,5 C 15,6 C 0,0 km/h (0 Bft)
29.07.2012 20:55 15,5 C 82 % 0,0 l/m 0,2 km/h (0 Bft) N-NO 22 12,4 C 15,5 C 0,0 km/h (0 Bft)
29.07.2012 21:00 15,5 C 82 % 0,0 l/m 0,2 km/h (0 Bft) O 90 12,4 C 15,5 C 0,0 km/h (0 Bft)
29.07.2012 21:05 15,4 C 83 % 0,0 l/m 0,6 km/h (0 Bft) O 90 12,5 C 15,5 C 0,0 km/h (0 Bft)
29.07.2012 21:10 15,4 C 83 % 0,0 l/m 1,0 km/h (0 Bft) N 360 12,5 C 15,5 C 0,0 km/h (0 Bft)
29.07.2012 21:15 15,4 C 83 % 0,0 l/m 0,3 km/h (0 Bft) N 360 12,5 C 15,4 C 0,0 km/h (0 Bft)
29.07.2012 21:20 15,4 C 83 % 0,0 l/m 0,2 km/h (0 Bft) N 360 12,5 C 15,4 C 0,0 km/h (0 Bft)
29.07.2012 21:25 15,3 C 84 % 0,0 l/m 0,3 km/h (0 Bft) N-NO 22 12,6 C 15,2 C 0,0 km/h (0 Bft)
29.07.2012 21:30 15,2 C 84 % 0,0 l/m 0,3 km/h (0 Bft) O 90 12,5 C 15,2 C 0,0 km/h (0 Bft)
29.07.2012 21:35 15,2 C 84 % 0,0 l/m 0,5 km/h (0 Bft) O-NO 67 12,5 C 15,2 C 0,0 km/h (0 Bft)
29.07.2012 21:40 15,2 C 84 % 0,0 l/m 0,5 km/h (0 Bft) S-SO 157 12,5 C 15,2 C 0,0 km/h (0 Bft)
29.07.2012 21:45 15,1 C 84 % 0,0 l/m 0,2 km/h (0 Bft) N 360 12,4 C 15,2 C 0,0 km/h (0 Bft)
29.07.2012 21:50 15,1 C 84 % 0,0 l/m 0,0 km/h (0 Bft) S-SW 202 12,4 C 15,2 C 0,0 km/h (0 Bft)
29.07.2012 21:55 15,1 C 84 % 0,0 l/m 0,0 km/h (0 Bft) N-NW 337 12,4 C 15,1 C 0,0 km/h (0 Bft)
29.07.2012 22:00 15,0 C 84 % 0,0 l/m 0,0 km/h (0 Bft) O 90 12,3 C 15,1 C 0,0 km/h (0 Bft)
29.07.2012 22:05 15,0 C 84 % 0,0 l/m 0,0 km/h (0 Bft) O-NO 67 12,3 C 15,0 C 0,0 km/h (0 Bft)
29.07.2012 22:10 15,0 C 84 % 0,0 l/m 0,0 km/h (0 Bft) N-NO 22 12,3 C 15,0 C 0,0 km/h (0 Bft)
29.07.2012 22:15 15,0 C 84 % 0,0 l/m 0,0 km/h (0 Bft) N 360 12,3 C 14,9 C 0,0 km/h (0 Bft)
29.07.2012 22:20 14,9 C 85 % 0,0 l/m 0,2 km/h (0 Bft) N-NO 22 12,4 C 14,9 C 0,0 km/h (0 Bft)
29.07.2012 22:25 14,9 C 85 % 0,0 l/m 0,2 km/h (0 Bft) N 360 12,4 C 14,8 C 0,0 km/h (0 Bft)
29.07.2012 22:30 14,9 C 85 % 0,0 l/m 0,0 km/h (0 Bft) N-NO 22 12,4 C 14,8 C 0,0 km/h (0 Bft)
29.07.2012 22:35 14,8 C 85 % 0,0 l/m 0,0 km/h (0 Bft) NO 45 12,3 C 14,8 C 0,0 km/h (0 Bft)
29.07.2012 22:40 14,8 C 85 % 0,0 l/m 0,0 km/h (0 Bft) S 180 12,3 C 14,7 C 0,0 km/h (0 Bft)
29.07.2012 22:45 14,8 C 85 % 0,0 l/m 0,0 km/h (0 Bft) N 360 12,3 C 14,7 C 0,0 km/h (0 Bft)
29.07.2012 22:50 14,8 C 85 % 0,0 l/m 0,0 km/h (0 Bft) N-NO 22 12,3 C 14,6 C 0,0 km/h (0 Bft)
29.07.2012 22:55 14,8 C 85 % 0,0 l/m 0,3 km/h (0 Bft) N 360 12,3 C 14,6 C 1,8 km/h (1 Bft)
29.07.2012 23:00 14,8 C 86 % 0,0 l/m 0,3 km/h (0 Bft) NO 45 12,5 C 14,6 C 0,0 km/h (0 Bft)
29.07.2012 23:05 14,8 C 85 % 0,0 l/m 0,2 km/h (0 Bft) O 90 12,3 C 14,6 C 0,0 km/h (0 Bft)
29.07.2012 23:10 14,7 C 86 % 0,0 l/m 0,0 km/h (0 Bft) N-NO 22 12,4 C 14,6 C 0,0 km/h (0 Bft)
29.07.2012 23:15 14,7 C 85 % 0,0 l/m 0,0 km/h (0 Bft) O-SO 112 12,2 C 14,6 C 0,0 km/h (0 Bft)
29.07.2012 23:20 14,8 C 85 % 0,0 l/m 0,0 km/h (0 Bft) N 360 12,3 C 14,6 C 0,0 km/h (0 Bft)
29.07.2012 23:25 14,7 C 86 % 0,0 l/m 0,0 km/h (0 Bft) N 360 12,4 C 14,6 C 0,0 km/h (0 Bft)
29.07.2012 23:30 14,7 C 86 % 0,0 l/m 0,2 km/h (0 Bft) NO 45 12,4 C 14,6 C 0,0 km/h (0 Bft)
29.07.2012 23:35 14,7 C 86 % 0,0 l/m 0,3 km/h (0 Bft) NO 45 12,4 C 14,6 C 0,0 km/h (0 Bft)
29.07.2012 23:40 14,7 C 86 % 0,0 l/m 0,2 km/h (0 Bft) NO 45 12,4 C 14,5 C 0,0 km/h (0 Bft)
29.07.2012 23:45 14,7 C 86 % 0,0 l/m 0,2 km/h (0 Bft) N 360 12,4 C 14,6 C 0,0 km/h (0 Bft)
29.07.2012 23:50 14,7 C 86 % 0,0 l/m 0,2 km/h (0 Bft) N 360 12,4 C 14,6 C 1,8 km/h (1 Bft)
29.07.2012 23:55 14,7 C 86 % 0,0 l/m 0,2 km/h (0 Bft) N-NO 22 12,4 C 14,5 C 0,0 km/h (0 Bft)
_ Min-Zeit 09:30 13:30 - 23:25 - - 09:05 09:00 23:55
Minimum _ 13,6 C 54 % - 0,0 km/h (0 Bft) - - 11,8 C 10,3 C 0,0 km/h (0 Bft)
_ Max-Zeit 13:05 07:30 09:25 09:00 - - 07:55 13:05 13:20
Maximum _ 24,5 C 94 % 0,7 l/m 14,5 km/h
SO (3 Bft)
- - 18,6 C 25,6 C 29,1 km/h
O-SO (5 Bft)
Durchschnitt _ 16,9 C 82 % #2,7 l/m 2,9 km/h (1 Bft) O-SO - 13,7 C 17,0 C 3,8 km/h (1 Bft)